Key Largo, Florida
Current Conditions -  °F | °C
As of 12:03 PM on Sunday 23 Nov 2014 (Local Time) from KHST Reporting Station
Scattered Clouds Scattered Clouds  
Wind Chill: 82°   Ceiling: Unl
Heat Index: 88°   Visibility: 10mi
Dew Point: 73°   Wind: 13mph
Humidity: 74%   Direction: 120°ESE
Pressure: 30"   Gusts: NA
Location:  25.17°N, 80.38°W
Report Text: KHST 231703Z AUTO 12011KT 10SM SCT019 28/23 A3000 RMK AO2 $
Loading
Personal Weather Stations






























Interactive Weather Map New forecast layout! Learn more

10-Day Weather Forecast

Advertisements
Track Severe Weather on mobile